Time;durP1;ratioP1;P1;durP2;ratioP2;P2;SDS_P1;SDS_P2;PMS_P1;PMS_P2;Temp;Humidity;BMP_temperature;BMP_pressure;BME280_temperature;BME280_humidity;BME280_pressure;Samples;Min_cycle;Max_cycle;Signal;HPM_P1;HPM_P2
2022/05/26 00:02:19;;;;;;;;;4.00;4.00;;;;;17.50;100.00;100732.81;3723497;38;20445;-64
2022/05/26 00:04:46;;;;;;;;;2.75;2.75;;;;;17.47;100.00;100735.16;3723950;37;20444;-65
2022/05/26 00:07:14;;;;;;;;;3.50;3.00;;;;;17.46;100.00;100720.66;3723812;37;20448;-63
2022/05/26 00:09:42;;;;;;;;;3.50;2.75;;;;;17.48;100.00;100721.25;3723195;37;21416;-63
2022/05/26 00:12:13;;;;;;;;;5.50;4.00;;;;;17.45;100.00;100724.44;3723602;38;20496;-66
2022/05/26 00:14:41;;;;;;;;;3.00;3.00;;;;;17.37;100.00;100726.62;3723835;37;20458;-64
2022/05/26 00:17:09;;;;;;;;;3.00;3.00;;;;;17.30;100.00;100726.69;3723983;38;20330;-65
2022/05/26 00:19:37;;;;;;;;;2.75;2.75;;;;;17.26;100.00;100724.63;3723724;37;20549;-63
2022/05/26 00:22:05;;;;;;;;;3.00;3.00;;;;;17.24;100.00;100724.00;3723780;38;21455;-64
2022/05/26 00:24:32;;;;;;;;;2.00;2.00;;;;;17.30;100.00;100723.94;3723890;37;21459;-65
2022/05/26 00:27:00;;;;;;;;;4.00;4.00;;;;;17.30;100.00;100718.47;3723725;37;21369;-62
2022/05/26 00:29:27;;;;;;;;;3.00;3.00;;;;;17.25;100.00;100720.22;3723769;37;21470;-62
2022/05/26 00:31:54;;;;;;;;;3.25;3.25;;;;;17.25;100.00;100728.41;3723853;37;20340;-63
2022/05/26 00:34:22;;;;;;;;;2.75;2.75;;;;;17.21;100.00;100736.22;3724516;38;21438;-65
2022/05/26 00:36:50;;;;;;;;;2.50;2.50;;;;;17.19;100.00;100738.34;3729612;38;21430;-69
2022/05/26 00:39:22;;;;;;;;;3.75;3.75;;;;;17.16;100.00;100728.69;3724387;38;21513;-63
2022/05/26 00:42:01;;;;;;;;;3.00;3.00;;;;;17.12;100.00;100737.59;3723937;37;21637;-65
2022/05/26 00:44:30;;;;;;;;;3.00;3.00;;;;;17.03;100.00;100736.19;3723014;37;21528;-65
2022/05/26 00:47:15;;;;;;;;;3.00;3.00;;;;;17.04;100.00;100740.59;3722904;37;21499;-67
2022/05/26 00:50:20;;;;;;;;;2.75;2.75;;;;;17.01;100.00;100735.56;3722819;38;21504;-64
2022/05/26 00:52:55;;;;;;;;;2.00;2.00;;;;;17.00;100.00;100737.47;3722937;37;21754;-66
2022/05/26 00:55:28;;;;;;;;;3.00;3.00;;;;;17.00;100.00;100736.62;3722819;37;21616;-65
2022/05/26 00:58:32;;;;;;;;;1.75;1.75;;;;;17.00;100.00;100737.47;3722722;38;21490;-63
2022/05/26 01:01:02;;;;;;;;;2.75;2.75;;;;;16.91;100.00;100735.22;3722797;38;21732;-65
2022/05/26 01:03:45;;;;;;;;;0.00;0.00;;;;;16.90;100.00;100728.91;3722770;37;21483;-64
2022/05/26 01:06:19;;;;;;;;;3.50;3.50;;;;;16.92;100.00;100720.47;3722754;38;21479;-64
2022/05/26 01:08:58;;;;;;;;;3.25;3.25;;;;;16.88;100.00;100712.72;3723425;38;21505;-66
2022/05/26 01:11:29;;;;;;;;;3.75;3.75;;;;;16.92;100.00;100717.75;3723274;38;21207;-64
2022/05/26 01:14:16;;;;;;;;;1.75;1.75;;;;;16.87;100.00;100721.13;3723599;37;21364;-64
2022/05/26 01:17:23;;;;;;;;;2.00;2.00;;;;;16.81;100.00;100719.28;3723809;38;21362;-64
2022/05/26 01:20:33;;;;;;;;;3.75;3.25;;;;;16.86;100.00;100727.66;3723879;37;21424;-64
2022/05/26 01:23:39;;;;;;;;;3.00;3.00;;;;;16.84;100.00;100729.78;3723802;37;21387;-65
2022/05/26 01:27:01;;;;;;;;;2.00;2.00;;;;;16.85;100.00;100734.19;3723828;37;21345;-65
2022/05/26 01:30:17;;;;;;;;;2.50;2.50;;;;;16.77;100.00;100729.00;3722918;38;21336;-64
2022/05/26 01:33:29;;;;;;;;;3.00;3.00;;;;;16.75;100.00;100737.41;3723874;37;21391;-64
2022/05/26 01:36:44;;;;;;;;;3.00;3.00;;;;;16.63;100.00;100754.72;3723844;38;21448;-65
2022/05/26 01:39:32;;;;;;;;;3.00;3.00;;;;;16.61;100.00;100754.09;3723175;37;21390;-64
2022/05/26 01:43:00;;;;;;;;;3.75;3.75;;;;;16.62;100.00;100763.97;3723021;37;21429;-64
2022/05/26 01:46:07;;;;;;;;;3.00;3.00;;;;;16.62;100.00;100755.78;3723833;37;21305;-63
2022/05/26 01:49:06;;;;;;;;;3.00;3.00;;;;;16.51;100.00;100760.03;3723836;37;21432;-64
2022/05/26 01:52:00;;;;;;;;;3.25;2.75;;;;;16.45;100.00;100764.47;3723559;38;21511;-63
2022/05/26 01:54:53;;;;;;;;;2.00;2.00;;;;;16.49;100.00;100751.19;3723600;37;21347;-63
2022/05/26 01:57:50;;;;;;;;;2.25;2.25;;;;;16.55;100.00;100742.13;3724013;37;21343;-63
2022/05/26 02:00:20;;;;;;;;;2.75;2.75;;;;;16.60;100.00;100757.88;3723885;37;21370;-64
2022/05/26 02:03:05;;;;;;;;;2.25;2.25;;;;;16.51;100.00;100755.41;3723815;38;21304;-64
2022/05/26 02:05:50;;;;;;;;;30.00;28.50;;;;;16.49;100.00;100762.13;3723771;38;21406;-63
2022/05/26 02:08:32;;;;;;;;;8.50;8.25;;;;;16.51;100.00;100768.22;3723835;37;21264;-64
2022/05/26 02:11:07;;;;;;;;;3.75;3.75;;;;;16.55;100.00;100775.75;3723801;37;21493;-64
2022/05/26 02:14:00;;;;;;;;;3.00;3.00;;;;;16.30;100.00;100777.53;3723830;38;21141;-62
2022/05/26 02:16:39;;;;;;;;;4.75;4.00;;;;;16.28;100.00;100792.47;3723306;38;21089;-64
2022/05/26 02:19:36;;;;;;;;;2.00;2.00;;;;;16.24;100.00;100789.31;3723898;37;21283;-64
2022/05/26 02:22:26;;;;;;;;;2.50;2.50;;;;;16.25;100.00;100792.91;3723054;38;21478;-65
2022/05/26 02:25:09;;;;;;;;;3.00;3.00;;;;;16.21;100.00;100797.94;3723596;38;21494;-64
2022/05/26 02:27:38;;;;;;;;;3.50;3.25;;;;;16.07;100.00;100807.25;3723168;37;21244;-63
2022/05/26 02:30:07;;;;;;;;;3.00;3.00;;;;;16.07;100.00;100819.00;3723895;37;21170;-63
2022/05/26 02:32:42;;;;;;;;;4.00;3.25;;;;;16.19;100.00;100827.34;3723301;37;21236;-62
2022/05/26 02:35:41;;;;;;;;;2.25;2.25;;;;;16.18;100.00;100820.22;3723801;37;21450;-62
2022/05/26 02:38:13;;;;;;;;;3.00;3.00;;;;;16.22;100.00;100833.22;3723805;38;21265;-64
2022/05/26 02:40:42;;;;;;;;;5.25;5.00;;;;;16.30;100.00;100821.25;3723446;37;21247;-64
2022/05/26 02:43:16;;;;;;;;;4.50;4.50;;;;;16.34;100.00;100840.78;3722991;37;21211;-64
2022/05/26 02:46:21;;;;;;;;;4.75;4.75;;;;;16.28;100.00;100869.78;3722451;38;21275;-63
2022/05/26 02:49:49;;;;;;;;;2.50;2.50;;;;;16.28;100.00;100877.97;3723255;37;21229;-64
2022/05/26 02:53:01;;;;;;;;;4.00;4.00;;;;;16.29;100.00;100876.09;3723081;38;21295;-63
2022/05/26 02:56:12;;;;;;;;;4.25;4.25;;;;;16.28;100.00;100885.31;3725640;37;21436;-63
2022/05/26 02:59:05;;;;;;;;;4.25;4.25;;;;;16.21;100.00;100886.19;3724894;37;21265;-63
2022/05/26 03:01:52;;;;;;;;;4.75;4.75;;;;;16.21;100.00;100888.06;3723414;38;21187;-64
2022/05/26 03:04:31;;;;;;;;;9.00;8.50;;;;;16.28;100.00;100901.72;3723071;38;21183;-66
2022/05/26 03:07:03;;;;;;;;;6.25;6.25;;;;;16.28;100.00;100902.56;3723695;38;21168;-65
2022/05/26 03:09:36;;;;;;;;;8.00;8.00;;;;;16.30;100.00;100894.16;3724120;37;21132;-67
2022/05/26 03:12:04;;;;;;;;;7.50;7.25;;;;;16.39;100.00;100895.59;3723995;37;21081;-66
2022/05/26 03:14:32;;;;;;;;;5.75;5.50;;;;;16.28;100.00;100891.63;3723870;37;21105;-67
2022/05/26 03:16:59;;;;;;;;;7.75;6.75;;;;;16.16;100.00;100899.62;3723670;38;21389;-69
2022/05/26 03:19:27;;;;;;;;;5.75;5.00;;;;;16.23;100.00;100885.97;3723801;37;21239;-69
2022/05/26 03:21:55;;;;;;;;;6.50;6.50;;;;;16.04;100.00;100895.88;3723937;38;21297;-66
2022/05/26 03:24:22;;;;;;;;;10.50;10.50;;;;;15.62;100.00;100886.22;3723265;37;21374;-66
2022/05/26 03:26:49;;;;;;;;;12.25;12.00;;;;;15.47;100.00;100877.37;3723923;37;21358;-67
2022/05/26 03:29:17;;;;;;;;;11.50;10.75;;;;;15.50;100.00;100890.59;3723940;38;21133;-67
2022/05/26 03:31:48;;;;;;;;;11.75;11.75;;;;;15.46;100.00;100892.91;3723955;38;21210;-67
2022/05/26 03:42:32;;;;;;;;;26.25;24.75;;;;;15.93;100.00;100907.44;3723997;38;21235;-68
2022/05/26 03:45:02;;;;;;;;;11.00;10.25;;;;;16.04;100.00;100915.00;3723175;37;21380;-67
2022/05/26 03:47:30;;;;;;;;;13.25;12.50;;;;;16.08;100.00;100942.72;3723998;38;21192;-63
2022/05/26 03:49:58;;;;;;;;;12.00;12.00;;;;;15.95;100.00;100939.97;3723777;38;21214;-65
2022/05/26 03:52:25;;;;;;;;;9.75;9.75;;;;;15.96;100.00;100955.31;3723732;37;21184;-65
2022/05/26 03:54:52;;;;;;;;;11.00;11.00;;;;;16.04;100.00;100964.12;3722861;38;21056;-69
2022/05/26 03:57:25;;;;;;;;;6.75;6.00;;;;;16.22;100.00;100975.25;3723913;37;21153;-64
2022/05/26 03:59:52;;;;;;;;;12.00;12.00;;;;;16.34;100.00;100977.34;3723920;38;21080;-64
2022/05/26 04:02:20;;;;;;;;;10.00;10.00;;;;;16.44;100.00;100984.06;3723890;37;21040;-65
2022/05/26 04:04:47;;;;;;;;;8.00;8.00;;;;;16.54;100.00;100992.69;3723230;37;21058;-66
2022/05/26 04:07:15;;;;;;;;;11.50;11.50;;;;;16.58;100.00;100993.09;3723857;37;21116;-64
2022/05/26 04:09:42;;;;;;;;;16.00;15.00;;;;;16.74;100.00;101002.75;3724090;37;21144;-64
2022/05/26 04:12:11;;;;;;;;;14.00;14.00;;;;;16.80;100.00;101000.00;3723336;37;21134;-64
2022/05/26 04:14:39;;;;;;;;;15.25;13.75;;;;;16.80;100.00;101002.75;3723658;37;21167;-63
2022/05/26 04:17:06;;;;;;;;;13.00;13.00;;;;;16.83;100.00;101007.78;3724069;37;21021;-65
2022/05/26 04:19:35;;;;;;;;;15.75;15.75;;;;;16.86;100.00;101004.62;3724050;37;21011;-65
2022/05/26 04:22:15;;;;;;;;;17.50;17.25;;;;;16.93;100.00;101010.06;3723261;38;21035;-63
2022/05/26 04:24:43;;;;;;;;;12.75;12.00;;;;;17.03;100.00;101018.69;3724106;38;21074;-64
2022/05/26 04:27:10;;;;;;;;;15.00;14.50;;;;;17.09;100.00;101016.97;3724261;37;21239;-65
2022/05/26 04:29:38;;;;;;;;;16.50;15.25;;;;;17.15;100.00;101007.91;3723919;37;21009;-66
2022/05/26 04:32:06;;;;;;;;;17.75;17.75;;;;;17.28;100.00;101016.03;3724018;37;21161;-66
2022/05/26 04:34:34;;;;;;;;;18.75;18.00;;;;;17.26;100.00;101015.41;3723513;38;21089;-65
2022/05/26 04:37:01;;;;;;;;;18.25;17.00;;;;;17.38;100.00;101018.31;3724050;38;21152;-67
2022/05/26 04:39:29;;;;;;;;;19.25;19.25;;;;;17.33;100.00;101018.97;3724236;37;21035;-65
2022/05/26 04:42:01;;;;;;;;;17.50;16.50;;;;;17.38;100.00;101012.84;3723512;38;21063;-67
2022/05/26 04:44:34;;;;;;;;;15.50;14.75;;;;;17.34;100.00;101020.66;3724275;38;21099;-65
2022/05/26 04:47:02;;;;;;;;;18.00;18.00;;;;;17.29;100.00;101034.13;3724092;37;20990;-65
2022/05/26 04:49:29;;;;;;;;;15.50;15.50;;;;;17.16;100.00;101010.41;3723877;38;20980;-64
2022/05/26 04:51:57;;;;;;;;;13.50;13.50;;;;;17.16;100.00;101015.03;3723814;37;21085;-64
2022/05/26 04:54:25;;;;;;;;;16.00;16.00;;;;;17.10;100.00;101018.66;3723778;37;21085;-64
2022/05/26 04:57:00;;;;;;;;;13.75;13.50;;;;;17.04;100.00;101024.97;3723202;37;21252;-63
2022/05/26 04:59:28;;;;;;;;;17.25;17.25;;;;;16.94;100.00;101030.06;3723772;38;21084;-63
2022/05/26 05:01:55;;;;;;;;;16.50;16.50;;;;;16.94;100.00;101013.66;3723128;37;21095;-64
2022/05/26 05:04:24;;;;;;;;;14.50;14.25;;;;;17.01;100.00;101012.59;3723297;38;21154;-64
2022/05/26 05:06:57;;;;;;;;;17.25;16.00;;;;;16.86;100.00;101017.44;3723753;38;20991;-63
2022/05/26 05:09:25;;;;;;;;;13.00;13.00;;;;;16.68;100.00;101018.09;3723337;38;21121;-65
2022/05/26 05:11:53;;;;;;;;;14.00;14.00;;;;;16.77;100.00;101035.97;3723820;37;21090;-64
2022/05/26 05:14:21;;;;;;;;;11.75;11.75;;;;;16.73;100.00;101012.00;3724164;38;21296;-63
2022/05/26 05:16:49;;;;;;;;;12.00;12.00;;;;;16.67;100.00;101005.50;3730077;37;21065;-63
2022/05/26 05:19:18;;;;;;;;;12.25;12.25;;;;;16.66;100.00;101009.28;3728569;37;21082;-66
2022/05/26 05:22:19;;;;;;;;;8.75;8.75;;;;;16.66;100.00;101008.44;3723903;37;21135;-65
2022/05/26 05:25:05;;;;;;;;;8.25;7.75;;;;;16.55;100.00;101018.94;3724645;38;21251;-66
2022/05/26 05:28:06;;;;;;;;;5.25;5.25;;;;;16.65;100.00;101014.94;3724302;37;20984;-64
2022/05/26 05:30:42;;;;;;;;;7.25;7.25;;;;;16.85;100.00;101016.59;3723470;38;21041;-66
2022/05/26 05:33:49;;;;;;;;;7.75;7.75;;;;;16.72;100.00;101032.19;3724183;38;21207;-64
2022/05/26 05:36:24;;;;;;;;;6.00;6.00;;;;;16.73;100.00;101059.31;3724339;37;20913;-67
2022/05/26 05:38:52;;;;;;;;;6.25;6.00;;;;;16.73;100.00;101026.50;3724114;37;21012;-66
2022/05/26 05:41:20;;;;;;;;;7.50;7.50;;;;;16.81;100.00;101025.44;3723464;38;20973;-67
2022/05/26 05:43:49;;;;;;;;;9.00;9.00;;;;;16.67;100.00;101023.78;3723964;38;21002;-66
2022/05/26 05:46:19;;;;;;;;;8.25;8.25;;;;;17.15;100.00;101035.25;3723851;37;20930;-66
2022/05/26 05:48:47;;;;;;;;;8.50;8.50;;;;;16.87;100.00;101041.00;3723899;37;20889;-65
2022/05/26 05:51:17;;;;;;;;;12.00;11.00;;;;;16.82;100.00;101041.63;3723544;37;21034;-66
2022/05/26 05:53:45;;;;;;;;;8.25;8.25;;;;;16.40;100.00;101039.34;3723907;38;20947;-68
2022/05/26 05:56:12;;;;;;;;;10.25;10.25;;;;;16.85;100.00;101059.50;3723955;38;21016;-66
2022/05/26 05:58:40;;;;;;;;;10.50;10.50;;;;;16.67;100.00;101071.09;3723281;37;20977;-66
2022/05/26 06:01:07;;;;;;;;;10.75;10.75;;;;;16.49;100.00;101060.78;3724225;38;20983;-65
2022/05/26 06:03:36;;;;;;;;;10.00;10.00;;;;;16.50;100.00;101091.69;3724047;37;20911;-67
2022/05/26 06:06:05;;;;;;;;;13.25;13.25;;;;;16.44;100.00;101073.38;3724136;37;20883;-65
2022/05/26 06:08:33;;;;;;;;;10.25;10.25;;;;;16.47;100.00;101106.59;3724036;37;20918;-67
2022/05/26 06:11:01;;;;;;;;;13.25;13.25;;;;;16.66;100.00;101072.13;3723655;37;20988;-66
2022/05/26 06:13:28;;;;;;;;;10.50;10.50;;;;;16.55;100.00;101065.41;3723817;38;21038;-66
2022/05/26 06:15:56;;;;;;;;;13.75;13.25;;;;;16.73;100.00;101074.88;3723574;37;20956;-64
2022/05/26 06:18:23;;;;;;;;;10.75;10.75;;;;;16.66;100.00;101091.28;3722822;37;21081;-66
2022/05/26 06:20:59;;;;;;;;;11.75;11.50;;;;;16.51;100.00;101075.06;3724073;38;20911;-65
2022/05/26 06:23:27;;;;;;;;;14.00;13.00;;;;;16.54;100.00;101091.06;3723076;38;21083;-64
2022/05/26 06:25:54;;;;;;;;;13.75;13.25;;;;;16.77;100.00;101101.56;3723861;37;20902;-63
2022/05/26 06:31:09;;;;;;;;;12.50;12.50;;;;;16.75;100.00;101094.63;3723699;37;20898;-63
2022/05/26 06:39:08;;;;;;;;;9.75;9.75;;;;;16.82;100.00;101103.66;3723904;38;20995;-64
2022/05/26 06:44:21;;;;;;;;;11.25;11.25;;;;;16.57;100.00;101125.31;3723465;37;20908;-62
2022/05/26 06:46:48;;;;;;;;;9.00;9.00;;;;;16.38;100.00;101129.69;3723844;38;20843;-63
2022/05/26 06:49:15;;;;;;;;;10.00;10.00;;;;;16.46;100.00;101131.41;3723016;38;21042;-63
2022/05/26 06:51:44;;;;;;;;;10.00;10.00;;;;;16.34;100.00;101146.72;3723802;38;20865;-61
2022/05/26 06:54:12;;;;;;;;;10.50;10.50;;;;;16.32;100.00;101132.41;3723757;38;20948;-61
2022/05/26 06:56:40;;;;;;;;;8.00;7.50;;;;;16.45;100.00;101144.22;3723548;37;20900;-61
2022/05/26 06:59:07;;;;;;;;;10.25;9.50;;;;;16.40;100.00;101146.72;3723719;38;20878;-62
2022/05/26 07:01:34;;;;;;;;;9.75;9.75;;;;;16.53;100.00;101141.28;3723689;37;20911;-64
2022/05/26 07:04:02;;;;;;;;;8.00;7.00;;;;;16.60;100.00;101163.16;3723756;37;20828;-65
2022/05/26 07:06:29;;;;;;;;;9.00;9.00;;;;;16.67;100.00;101154.97;3723096;38;20807;-61
2022/05/26 07:08:57;;;;;;;;;8.00;8.00;;;;;16.45;100.00;101166.06;3723862;37;20887;-62
2022/05/26 07:11:24;;;;;;;;;9.00;9.00;;;;;16.50;100.00;101168.19;3723750;37;20892;-63
2022/05/26 07:13:51;;;;;;;;;8.00;8.00;;;;;16.58;100.00;101184.38;3723728;38;21069;-63
2022/05/26 07:16:19;;;;;;;;;9.75;9.75;;;;;16.68;100.00;101181.25;3723156;38;20828;-62
2022/05/26 07:18:47;;;;;;;;;9.25;9.25;;;;;16.52;100.00;101191.53;3723148;37;20954;-63
2022/05/26 07:21:14;;;;;;;;;9.25;9.25;;;;;16.52;100.00;101191.53;3724022;38;20863;-63
2022/05/26 07:23:42;;;;;;;;;7.75;7.75;;;;;16.43;100.00;101184.56;3723373;37;20761;-63
2022/05/26 07:26:12;;;;;;;;;10.25;10.25;;;;;16.56;100.00;101200.16;3724028;38;21012;-63
2022/05/26 07:28:41;;;;;;;;;8.00;8.00;;;;;16.81;100.00;101195.78;3723631;37;20867;-64
2022/05/26 07:31:10;;;;;;;;;10.00;10.00;;;;;16.82;100.00;101192.00;3724013;37;21017;-63
2022/05/26 07:33:38;;;;;;;;;8.50;8.50;;;;;16.84;100.00;101209.03;3723929;37;20765;-62
2022/05/26 07:36:06;;;;;;;;;8.00;8.00;;;;;16.96;100.00;101202.94;3725442;37;20956;-62
2022/05/26 07:41:24;;;;;;;;;7.25;7.25;;;;;16.88;100.00;101202.09;3724907;37;20966;-64
2022/05/26 07:43:58;;;;;;;;;3.00;3.00;;;;;16.86;100.00;101208.81;3723984;37;20874;-64
2022/05/26 07:46:27;;;;;;;;;8.25;8.25;;;;;17.08;100.00;101201.28;3723361;37;20838;-65
2022/05/26 07:48:54;;;;;;;;;10.00;10.00;;;;;17.39;100.00;101204.19;3723451;37;20829;-64
2022/05/26 07:51:21;;;;;;;;;8.50;8.50;;;;;17.45;100.00;101202.47;3723349;38;20937;-63
2022/05/26 07:53:49;;;;;;;;;8.75;8.75;;;;;17.44;100.00;101207.13;3723328;38;20788;-62
2022/05/26 07:56:18;;;;;;;;;8.00;8.00;;;;;17.21;100.00;101223.13;3723275;37;20726;-64
2022/05/26 07:58:47;;;;;;;;;7.25;7.25;;;;;16.94;100.00;101218.72;3723772;38;20809;-63
2022/05/26 08:01:16;;;;;;;;;8.00;8.00;;;;;17.08;100.00;101221.25;3724029;37;20712;-63
2022/05/26 08:03:45;;;;;;;;;9.00;9.00;;;;;17.23;100.00;101225.66;3723997;37;20924;-64
2022/05/26 08:06:38;;;;;;;;;8.75;8.75;;;;;17.19;100.00;101222.50;3723256;37;20918;-64
2022/05/26 08:09:07;;;;;;;;;11.00;10.00;;;;;17.40;100.00;101219.53;3724040;38;20738;-63
2022/05/26 08:11:34;;;;;;;;;10.00;10.00;;;;;17.58;100.00;101250.87;3723154;37;20690;-62
2022/05/26 08:14:02;;;;;;;;;7.25;7.25;;;;;17.74;100.00;101250.44;3724050;37;20825;-63
2022/05/26 08:16:30;;;;;;;;;7.25;7.25;;;;;18.06;100.00;101235.84;3724015;38;20706;-63
2022/05/26 08:18:59;;;;;;;;;7.75;7.75;;;;;18.08;100.00;101235.62;3723039;37;20684;-62
2022/05/26 08:21:26;;;;;;;;;8.50;8.25;;;;;18.24;100.00;101231.53;3724060;37;20801;-62
2022/05/26 08:23:54;;;;;;;;;6.00;6.00;;;;;18.33;100.00;101238.44;3724260;38;20802;-62
2022/05/26 08:26:22;;;;;;;;;8.75;8.75;;;;;18.35;100.00;101225.34;3724030;37;20791;-64
2022/05/26 08:28:50;;;;;;;;;8.50;8.50;;;;;18.62;100.00;101234.31;3724282;37;20790;-63
2022/05/26 08:31:17;;;;;;;;;7.50;7.50;;;;;18.30;100.00;101220.53;3724922;37;20785;-64
2022/05/26 08:33:45;;;;;;;;;7.25;7.25;;;;;18.29;100.00;101221.59;3725080;38;20881;-63
2022/05/26 08:36:16;;;;;;;;;10.00;9.00;;;;;18.45;100.00;101220.25;3726171;37;20661;-62
2022/05/26 08:38:44;;;;;;;;;9.00;8.00;;;;;18.57;100.00;101223.97;3727051;37;20991;-63
2022/05/26 08:41:27;;;;;;;;;8.50;8.50;;;;;18.56;100.00;101225.03;3724624;38;20674;-62
2022/05/26 08:44:03;;;;;;;;;8.00;8.00;;;;;18.80;100.00;101251.69;3724338;38;20762;-63
2022/05/26 08:47:07;;;;;;;;;6.75;6.75;;;;;18.76;100.00;101247.72;3724186;37;20675;-62
2022/05/26 08:50:14;;;;;;;;;9.75;9.75;;;;;18.82;100.00;101232.28;3723509;38;20715;-63
2022/05/26 08:53:10;;;;;;;;;8.00;8.00;;;;;18.93;100.00;101238.94;3723628;37;20669;-63
2022/05/26 08:55:44;;;;;;;;;8.75;8.75;;;;;18.99;100.00;101244.41;3724206;37;20714;-63
2022/05/26 08:58:21;;;;;;;;;8.00;7.00;;;;;19.03;100.00;101234.66;3724051;37;20721;-65
2022/05/26 09:00:51;;;;;;;;;8.25;8.25;;;;;19.14;100.00;101228.44;3723915;37;20926;-63
2022/05/26 09:03:35;;;;;;;;;7.50;7.25;;;;;19.25;100.00;101242.47;3723356;37;20719;-62
2022/05/26 09:06:20;;;;;;;;;7.00;7.00;;;;;19.36;100.00;101239.00;3723811;37;20637;-62
2022/05/26 09:14:35;;;;;;;;;7.25;6.75;;;;;19.77;100.00;101243.91;3724227;37;20612;-65
2022/05/26 09:17:10;;;;;;;;;8.25;8.25;;;;;19.68;100.00;101220.56;3724112;37;20718;-63
2022/05/26 09:19:53;;;;;;;;;10.00;9.50;;;;;19.56;100.00;101252.59;3723664;37;20599;-64
2022/05/26 09:22:45;;;;;;;;;7.50;7.50;;;;;19.53;100.00;101226.44;3725024;38;20769;-64
2022/05/26 09:25:39;;;;;;;;;9.00;9.00;;;;;19.53;100.00;101231.91;3724158;38;20860;-64
2022/05/26 09:28:09;;;;;;;;;8.25;8.25;;;;;19.50;100.00;101221.34;3723578;37;20876;-63
2022/05/26 09:30:38;;;;;;;;;7.00;7.00;;;;;19.71;100.00;101234.69;3723658;38;20606;-65
2022/05/26 09:33:30;;;;;;;;;6.50;6.50;;;;;19.49;100.00;101225.16;3724413;37;20601;-65
2022/05/26 09:37:00;;;;;;;;;6.50;6.50;;;;;19.59;100.00;101227.44;3724653;37;20571;-64
2022/05/26 09:39:37;;;;;;;;;9.25;8.75;;;;;19.59;100.00;101232.91;3724032;38;20669;-64
2022/05/26 09:42:27;;;;;;;;;5.75;5.75;;;;;19.99;100.00;101225.06;3724141;38;20661;-63
2022/05/26 09:45:03;;;;;;;;;6.25;6.25;;;;;20.29;100.00;101223.19;3723932;37;20779;-64
2022/05/26 09:47:37;;;;;;;;;6.25;6.25;;;;;20.37;100.00;101224.78;3723875;37;20814;-63
2022/05/26 09:50:09;;;;;;;;;5.00;5.00;;;;;20.16;100.00;101217.88;3723208;38;20818;-64
2022/05/26 09:52:46;;;;;;;;;6.25;6.25;;;;;20.38;100.00;101232.00;3723821;38;20627;-63
2022/05/26 09:55:29;;;;;;;;;5.00;5.00;;;;;20.25;100.00;101218.41;3724358;37;20664;-64
2022/05/26 09:58:11;;;;;;;;;4.50;4.50;;;;;20.43;100.00;101219.22;3726017;37;20771;-64
2022/05/26 10:00:42;;;;;;;;;4.00;4.00;;;;;20.16;100.00;101207.75;3727363;38;20651;-62
2022/05/26 10:03:47;;;;;;;;;5.50;5.25;;;;;20.29;100.00;101208.59;3725387;38;20689;-64
2022/05/26 10:06:40;;;;;;;;;5.00;5.00;;;;;20.52;100.00;101217.00;3723974;37;20719;-64
2022/05/26 10:09:44;;;;;;;;;6.00;6.00;;;;;20.32;100.00;101213.63;3723820;37;20662;-63
2022/05/26 10:12:50;;;;;;;;;5.50;4.00;;;;;20.70;99.94;101208.69;3723881;37;20706;-63
2022/05/26 10:16:04;;;;;;;;;3.75;3.75;;;;;20.59;95.90;101241.66;3723821;38;20636;-62
2022/05/26 10:19:25;;;;;;;;;5.00;5.00;;;;;20.46;97.35;101212.44;3723915;38;20635;-62
2022/05/26 10:22:22;;;;;;;;;5.25;5.25;;;;;20.44;97.01;101226.41;3724071;37;20643;-63
2022/05/26 10:25:32;;;;;;;;;5.00;5.00;;;;;20.24;97.72;101198.34;3724284;37;20706;-64
2022/05/26 10:28:31;;;;;;;;;4.25;3.50;;;;;20.64;98.72;101208.78;3723641;37;20739;-63
2022/05/26 10:31:21;;;;;;;;;3.75;3.75;;;;;20.70;96.08;101208.69;3723841;37;20533;-64
2022/05/26 10:34:27;;;;;;;;;4.75;4.75;;;;;20.79;95.12;101223.81;3723938;38;20595;-63
2022/05/26 10:37:38;;;;;;;;;5.00;5.00;;;;;20.67;95.45;101213.81;3723841;38;20746;-64
2022/05/26 10:40:36;;;;;;;;;6.50;6.50;;;;;20.90;96.06;101218.53;3723743;37;20775;-63
2022/05/26 10:43:12;;;;;;;;;7.50;7.00;;;;;20.93;97.13;101218.06;3723802;37;20771;-64
2022/05/26 10:45:46;;;;;;;;;7.75;7.75;;;;;20.83;98.07;101202.97;3724265;37;20699;-64
2022/05/26 10:49:01;;;;;;;;;6.25;6.25;;;;;21.12;96.12;101212.25;3723615;38;20511;-63
2022/05/26 10:51:55;;;;;;;;;6.50;6.50;;;;;21.10;97.26;101208.88;3722846;38;20668;-63
2022/05/26 10:54:37;;;;;;;;;6.50;6.00;;;;;21.27;95.02;101208.22;3723700;38;20601;-63
2022/05/26 10:57:27;;;;;;;;;6.50;6.50;;;;;21.27;95.53;101211.81;3723111;38;20507;-63
2022/05/26 11:00:05;;;;;;;;;8.25;8.25;;;;;21.39;94.12;101203.53;3723204;37;20582;-64
2022/05/26 11:02:41;;;;;;;;;6.25;6.25;;;;;21.47;93.67;101216.94;3723756;37;20546;-64
2022/05/26 11:05:22;;;;;;;;;5.25;5.25;;;;;21.21;89.94;101207.25;3722816;38;20480;-61
2022/05/26 11:07:56;;;;;;;;;9.00;8.25;;;;;21.30;92.32;101203.09;3722752;37;20573;-64
2022/05/26 11:10:50;;;;;;;;;6.50;6.50;;;;;21.54;91.56;101222.34;3723129;38;20554;-63
2022/05/26 11:13:47;;;;;;;;;8.00;8.00;;;;;21.51;91.33;101195.28;3723636;37;20744;-63
2022/05/26 11:19:46;;;;;;;;;6.25;5.75;;;;;21.41;87.21;101188.44;3722701;38;20712;-63
2022/05/26 11:22:15;;;;;;;;;6.75;5.75;;;;;21.73;88.74;101193.59;3723630;38;20689;-64
2022/05/26 11:24:51;;;;;;;;;5.25;5.25;;;;;21.68;85.33;101188.78;3723607;37;20619;-62
2022/05/26 11:27:32;;;;;;;;;7.25;7.00;;;;;21.89;84.94;101184.53;3722953;37;20527;-63
2022/05/26 11:36:07;;;;;;;;;5.00;5.00;;;;;22.00;85.93;101183.69;3723094;38;20547;-64
2022/05/26 11:38:35;;;;;;;;;4.00;4.00;;;;;22.09;78.27;101173.16;3723205;38;20514;-64
2022/05/26 11:41:12;;;;;;;;;0.75;0.75;;;;;21.96;77.94;101170.62;3723775;37;20500;-63
2022/05/26 11:43:53;;;;;;;;;4.00;3.00;;;;;21.88;77.71;101160.81;3723768;38;20610;-63
2022/05/26 11:47:00;;;;;;;;;2.75;2.75;;;;;22.02;76.49;101181.56;3723835;37;20682;-63
2022/05/26 11:50:20;;;;;;;;;4.00;4.00;;;;;22.37;74.51;101170.38;3723842;37;20443;-64
2022/05/26 11:53:34;;;;;;;;;3.00;3.00;;;;;22.48;72.41;101189.87;3723728;37;20646;-64
2022/05/26 11:56:41;;;;;;;;;5.75;5.00;;;;;22.24;69.62;101186.41;3723932;38;20523;-64
2022/05/26 11:59:26;;;;;;;;;1.50;1.50;;;;;21.95;71.41;101171.72;3724032;37;20500;-63
2022/05/26 12:02:15;;;;;;;;;4.75;4.75;;;;;22.08;70.85;101164.03;3724169;37;20538;-64
2022/05/26 12:04:48;;;;;;;;;3.25;3.25;;;;;22.31;70.92;101159.53;3724130;38;20778;-62
2022/05/26 12:07:36;;;;;;;;;4.00;4.00;;;;;22.45;64.80;101164.47;3724687;38;20602;-63
2022/05/26 12:10:20;;;;;;;;;4.75;4.75;;;;;22.39;65.56;101167.38;3724362;37;20737;-63
2022/05/26 12:12:49;;;;;;;;;4.00;4.00;;;;;22.23;63.02;101185.56;3723384;38;20733;-63
2022/05/26 12:15:23;;;;;;;;;5.50;5.00;;;;;22.21;65.17;101162.06;3723205;38;20609;-65
2022/05/26 12:17:55;;;;;;;;;5.00;5.00;;;;;22.15;66.13;101157.53;3724203;38;20663;-64
2022/05/26 12:20:37;;;;;;;;;3.00;3.00;;;;;22.24;67.65;101159.66;3727605;37;20500;-63
2022/05/26 12:23:24;;;;;;;;;5.75;5.75;;;;;22.37;65.68;101164.84;3724958;37;20341;-63
2022/05/26 12:26:28;;;;;;;;;5.75;5.75;;;;;22.53;64.73;101151.34;3723236;38;20628;-64
2022/05/26 12:29:33;;;;;;;;;5.00;5.00;;;;;22.89;65.62;101145.37;3724107;37;20444;-63
2022/05/26 12:32:18;;;;;;;;;3.50;3.50;;;;;23.10;63.83;101152.06;3723757;37;20571;-64
2022/05/26 12:35:26;;;;;;;;;4.25;4.25;;;;;22.93;61.78;101156.75;3723774;38;20374;-63
2022/05/26 12:38:15;;;;;;;;;6.00;6.00;;;;;23.16;62.34;101145.53;3722915;37;20740;-64
2022/05/26 12:41:14;;;;;;;;;5.75;5.75;;;;;22.74;62.10;101158.91;3723793;37;21459;-63
2022/05/26 12:44:37;;;;;;;;;7.00;6.00;;;;;22.67;62.09;101141.69;3723917;38;20635;-63
2022/05/26 12:47:36;;;;;;;;;5.75;5.75;;;;;22.87;61.92;101152.28;3723188;37;20555;-63